London, California
Current Conditions -  °F | °C
As of 11:35 AM on Monday 22 Dec 2014 (Local Time) from KVIS Reporting Station
Overcast Overcast  
Wind Chill: 61°   Ceiling: 1700
Heat Index: 61°   Visibility: 10mi
Dew Point: 52°   Wind: 7mph
Humidity: 72%   Direction: 290°WNW
Pressure: 30.25"   Gusts: NA
Location:  36.5216°N, 119.386°W
Report Text: KVIS 221935Z AUTO 29006KT 10SM FEW010 OVC017 16/11 A3025 RMK AO1
Loading
Personal Weather Stations






























Interactive Weather Map New forecast layout! Learn more

10-Day Weather Forecast

Advertisements
Track Severe Weather on mobile